Redondo, Washington
Current Conditions -  °F | °C
As of 8:53 AM on Thursday 30 Oct 2014 (Local Time) from KSEA Reporting Station
Overcast Overcast  
Wind Chill: 59°   Ceiling: 7000
Heat Index: 59°   Visibility: 10mi
Dew Point: 49°   Wind: 10mph
Humidity: 69%   Direction: 150°SSE
Pressure: 29.89"   Gusts: NA
Location:  47.34°N, 122.33°W
Report Text: KSEA 301553Z 15009KT 10SM BKN070 OVC095 15/09 A2989 RMK AO2 RAE35 PRESRR SLP125 P0001 T01500094
Loading
Personal Weather Stations






























Interactive Weather Map
Tropical Storm Tracking
New forecast layout! Learn more

10-Day Weather Forecast

Advertisements
Track Severe Weather on mobile